createdAt,value
2022-08-05T00:02:07.945Z,98382.06
2022-08-05T00:04:38.222Z,98381.84
2022-08-05T00:07:27.051Z,98382.69
2022-08-05T00:09:53.723Z,98382.25
2022-08-05T00:12:21.278Z,98376.00
2022-08-05T00:14:48.713Z,98386.47
2022-08-05T00:17:20.315Z,98382.47
2022-08-05T00:20:02.039Z,98384.47
2022-08-05T00:22:29.594Z,98384.97
2022-08-05T00:24:57.821Z,98388.72
2022-08-05T00:27:28.514Z,98385.56
2022-08-05T00:30:04.024Z,98389.34
2022-08-05T00:32:30.688Z,98380.31
2022-08-05T00:35:06.290Z,98385.84
2022-08-05T00:37:35.626Z,98378.72
2022-08-05T00:40:28.179Z,98382.41
2022-08-05T00:42:57.777Z,98386.16
2022-08-05T00:45:28.307Z,98375.88
2022-08-05T00:48:09.412Z,98376.75
2022-08-05T00:50:37.349Z,98380.69
2022-08-05T00:53:09.503Z,98373.16
2022-08-05T00:55:50.978Z,98373.97
2022-08-05T00:58:19.161Z,98379.72
2022-08-05T01:00:47.805Z,98374.78
2022-08-05T01:03:22.567Z,98371.63
2022-08-05T01:05:50.458Z,98374.34
2022-08-05T01:08:40.931Z,98371.84
2022-08-05T01:11:22.410Z,98384.06
2022-08-05T01:14:08.458Z,98375.97
2022-08-05T01:16:50.004Z,98375.97
2022-08-05T01:19:46.314Z,98365.31
2022-08-05T01:22:38.752Z,98365.50
2022-08-05T01:25:17.850Z,98362.88
2022-08-05T01:28:03.102Z,98359.63
2022-08-05T01:30:35.545Z,98354.06
2022-08-05T01:33:08.441Z,98359.44
2022-08-05T01:35:51.758Z,98352.69
2022-08-05T01:38:27.111Z,98355.63
2022-08-05T01:41:01.325Z,98346.81
2022-08-05T01:43:30.374Z,98345.44
2022-08-05T01:45:58.356Z,98355.03
2022-08-05T01:48:36.375Z,98345.44
2022-08-05T01:51:12.285Z,98350.88
2022-08-05T01:53:57.252Z,98349.88
2022-08-05T01:58:09.941Z,98349.66
2022-08-05T01:59:21.706Z,98349.00
2022-08-05T02:01:51.932Z,98341.13
2022-08-05T02:04:24.191Z,98342.22
2022-08-05T02:06:52.725Z,98338.56
2022-08-05T02:09:20.675Z,98346.41
2022-08-05T02:11:53.573Z,98339.41
2022-08-05T02:14:34.307Z,98335.34
2022-08-05T02:17:29.664Z,98336.06
2022-08-05T02:20:01.855Z,98335.34
2022-08-05T02:22:31.685Z,98338.88
2022-08-05T02:25:06.142Z,98341.38
2022-08-05T02:27:58.121Z,98347.84
2022-08-05T02:30:27.903Z,98351.19
2022-08-05T02:32:59.484Z,98344.69
2022-08-05T02:35:33.179Z,98342.63
2022-08-05T02:38:05.357Z,98346.56
2022-08-05T02:40:40.715Z,98344.13
2022-08-05T02:43:09.373Z,98340.59
2022-08-05T02:45:51.990Z,98345.19
2022-08-05T02:48:29.364Z,98343.56
2022-08-05T02:51:00.714Z,98340.97
2022-08-05T02:53:39.044Z,98344.41
2022-08-05T02:56:08.699Z,98346.19
2022-08-05T02:58:36.969Z,98343.22
2022-08-05T03:01:17.441Z,98343.94
2022-08-05T03:04:08.919Z,98339.09
2022-08-05T03:06:56.650Z,98347.03
2022-08-05T03:09:36.453Z,98346.19
2022-08-05T03:12:05.845Z,98340.94
2022-08-05T03:14:32.482Z,98347.69
2022-08-05T03:16:59.509Z,98339.00
2022-08-05T03:19:33.200Z,98342.81
2022-08-05T03:22:03.187Z,98345.00
2022-08-05T03:24:32.401Z,98342.81
2022-08-05T03:27:00.866Z,98344.50
2022-08-05T03:29:44.855Z,98348.56
2022-08-05T03:32:19.497Z,98345.28
2022-08-05T03:34:49.584Z,98346.53
2022-08-05T03:37:19.310Z,98342.81
2022-08-05T03:40:01.294Z,98338.63
2022-08-05T03:42:32.435Z,98337.75
2022-08-05T03:45:21.412Z,98335.59
2022-08-05T03:47:50.001Z,98335.69
2022-08-05T03:50:16.759Z,98340.63
2022-08-05T03:54:59.335Z,98342.31
2022-08-05T03:56:17.206Z,98341.00
2022-08-05T03:58:57.357Z,98348.28
2022-08-05T04:01:26.352Z,98345.88
2022-08-05T04:04:10.628Z,98347.06
2022-08-05T04:06:37.743Z,98350.25
2022-08-05T04:09:06.349Z,98353.59
2022-08-05T04:11:50.946Z,98343.34
2022-08-05T04:14:30.115Z,98344.09
2022-08-05T04:16:59.656Z,98352.34
2022-08-05T04:19:28.106Z,98348.13
2022-08-05T04:22:08.179Z,98340.44
2022-08-05T04:24:43.915Z,98338.13
2022-08-05T04:27:19.849Z,98341.66
2022-08-05T04:30:03.827Z,98337.25
2022-08-05T04:32:31.045Z,98332.38
2022-08-05T04:35:00.617Z,98332.75
2022-08-05T04:38:00.919Z,98338.44
2022-08-05T04:40:13.930Z,98333.22
2022-08-05T04:42:46.403Z,98324.53
2022-08-05T04:45:14.219Z,98331.25
2022-08-05T04:48:18.525Z,98327.34
2022-08-05T04:51:03.195Z,98323.97
2022-08-05T04:53:36.677Z,98309.53
2022-08-05T04:56:32.375Z,98320.44
2022-08-05T04:58:56.219Z,98313.25
2022-08-05T05:02:05.654Z,98318.09
2022-08-05T05:04:09.634Z,98318.34
2022-08-05T05:06:40.636Z,98317.63
2022-08-05T05:09:17.281Z,98309.69
2022-08-05T05:11:54.391Z,98320.59
2022-08-05T05:14:27.692Z,98313.22
2022-08-05T05:17:03.366Z,98319.44
2022-08-05T05:19:36.822Z,98323.44
2022-08-05T05:22:23.468Z,98327.44
2022-08-05T05:24:58.399Z,98323.31
2022-08-05T05:27:44.395Z,98322.72
2022-08-05T05:30:15.555Z,98319.63
2022-08-05T05:32:55.710Z,98324.06
2022-08-05T05:35:23.093Z,98324.41
2022-08-05T05:37:59.700Z,98321.38
2022-08-05T05:40:29.252Z,98324.56
2022-08-05T05:42:57.213Z,98327.94
2022-08-05T05:45:24.600Z,98332.69
2022-08-05T05:48:05.428Z,98329.09
2022-08-05T05:50:43.920Z,98325.78
2022-08-05T05:53:21.937Z,98329.38
2022-08-05T05:55:52.345Z,98326.38
2022-08-05T05:58:32.013Z,98326.94
2022-08-05T06:01:04.945Z,98320.59
2022-08-05T06:04:01.138Z,98324.63
2022-08-05T06:06:31.116Z,98325.84
2022-08-05T06:08:59.946Z,98324.19
2022-08-05T06:11:28.812Z,98319.09
2022-08-05T06:13:56.202Z,98320.00
2022-08-05T06:16:31.194Z,98322.88
2022-08-05T06:19:01.236Z,98326.72
2022-08-05T06:21:36.579Z,98328.16
2022-08-05T06:24:12.180Z,98326.38
2022-08-05T06:26:52.185Z,98328.88
2022-08-05T06:29:26.488Z,98332.69
2022-08-05T06:32:25.276Z,98329.44
2022-08-05T06:34:56.890Z,98330.63
2022-08-05T06:37:52.323Z,98338.78
2022-08-05T06:40:12.344Z,98341.66
2022-08-05T06:42:40.457Z,98342.94
2022-08-05T06:45:08.715Z,98340.75
2022-08-05T06:48:46.901Z,98334.09
2022-08-05T06:50:23.623Z,98340.38
2022-08-05T06:53:03.648Z,98339.00
2022-08-05T06:55:37.299Z,98338.53
2022-08-05T06:58:20.078Z,98334.22
2022-08-05T07:00:51.489Z,98333.59
2022-08-05T07:03:18.419Z,98335.25
2022-08-05T07:05:46.343Z,98335.94
2022-08-05T07:08:13.490Z,98324.06
2022-08-05T07:10:52.770Z,98331.34
2022-08-05T07:13:58.256Z,98329.88
2022-08-05T07:18:02.350Z,98325.34
2022-08-05T07:22:28.857Z,98328.16
2022-08-05T07:24:58.035Z,98322.28
2022-08-05T07:27:27.535Z,98319.38
2022-08-05T07:30:24.775Z,98321.03
2022-08-05T07:32:55.177Z,98315.84
2022-08-05T07:36:03.088Z,98313.66
2022-08-05T07:38:12.435Z,98307.72
2022-08-05T07:40:55.707Z,98314.97
2022-08-05T07:43:28.254Z,98320.72
2022-08-05T07:45:57.305Z,98318.22
2022-08-05T07:49:00.698Z,98325.13
2022-08-05T07:51:23.541Z,98316.19
2022-08-05T07:53:58.591Z,98316.91
2022-08-05T07:57:00.727Z,98316.28
2022-08-05T07:59:15.325Z,98318.72
2022-08-05T08:01:52.021Z,98315.34
2022-08-05T08:04:37.434Z,98319.94
2022-08-05T08:07:07.170Z,98312.03
2022-08-05T08:09:34.595Z,98311.72
2022-08-05T08:12:09.056Z,98313.97
2022-08-05T08:14:42.267Z,98312.75
2022-08-05T08:17:15.937Z,98315.81
2022-08-05T08:20:21.697Z,98312.28
2022-08-05T08:22:35.802Z,98317.16
2022-08-05T08:25:03.975Z,98319.44
2022-08-05T08:27:47.602Z,98319.91
2022-08-05T08:30:27.631Z,98315.28
2022-08-05T08:33:13.633Z,98317.91
2022-08-05T08:35:53.012Z,98316.47
2022-08-05T08:38:35.154Z,98309.84
2022-08-05T08:41:07.384Z,98309.63
2022-08-05T08:45:18.772Z,98304.47
2022-08-05T08:46:24.558Z,98303.88
2022-08-05T08:49:07.866Z,98295.31
2022-08-05T08:52:03.970Z,98292.78
2022-08-05T08:54:30.926Z,98289.78
2022-08-05T08:56:59.781Z,98290.47
2022-08-05T08:59:27.603Z,98289.97
2022-08-05T09:01:57.223Z,98289.25
2022-08-05T09:04:30.084Z,98291.59
2022-08-05T09:06:57.838Z,98285.50
2022-08-05T09:09:25.975Z,98274.28
2022-08-05T09:12:03.333Z,98277.63
2022-08-05T09:14:57.337Z,98267.13
2022-08-05T09:17:42.410Z,98267.63
2022-08-05T09:20:36.396Z,98259.81
2022-08-05T09:23:07.741Z,98260.97
2022-08-05T09:26:01.505Z,98261.53
2022-08-05T09:28:31.990Z,98251.28
2022-08-05T09:31:22.093Z,98257.13
2022-08-05T09:33:58.721Z,98259.34
2022-08-05T09:36:54.742Z,98259.63
2022-08-05T09:39:41.449Z,98257.47
2022-08-05T09:42:17.216Z,98255.16
2022-08-05T09:44:51.264Z,98254.97
2022-08-05T09:47:24.175Z,98257.56
2022-08-05T09:50:00.737Z,98259.28
2022-08-05T09:52:36.591Z,98256.94
2022-08-05T09:55:57.336Z,98249.69
2022-08-05T09:58:00.312Z,98263.63
2022-08-05T10:00:29.741Z,98258.75
2022-08-05T10:02:58.648Z,98252.28
2022-08-05T10:05:28.422Z,98261.88
2022-08-05T10:08:35.030Z,98255.50
2022-08-05T10:10:45.515Z,98252.69
2022-08-05T10:13:45.551Z,98251.63
2022-08-05T10:16:37.688Z,98249.44
2022-08-05T10:19:10.132Z,98250.03
2022-08-05T10:21:40.183Z,98246.84
2022-08-05T10:24:13.540Z,98256.00
2022-08-05T10:26:49.182Z,98235.34
2022-08-05T10:29:23.882Z,98246.13
2022-08-05T10:32:54.505Z,98237.19
2022-08-05T10:35:01.022Z,98236.19
2022-08-05T10:37:40.011Z,98245.19
2022-08-05T10:40:32.183Z,98235.47
2022-08-05T10:43:12.624Z,98232.38
2022-08-05T10:45:40.178Z,98229.91
2022-08-05T10:48:57.146Z,98225.91
2022-08-05T10:51:29.197Z,98224.28
2022-08-05T10:54:01.067Z,98221.13
2022-08-05T10:56:45.398Z,98219.31
2022-08-05T11:00:04.212Z,98226.94
2022-08-05T11:02:08.807Z,98226.03
2022-08-05T11:04:45.759Z,98227.28
2022-08-05T11:07:16.211Z,98220.13
2022-08-05T11:09:49.912Z,98216.19
2022-08-05T11:12:45.328Z,98211.81
2022-08-05T11:15:20.263Z,98218.13
2022-08-05T11:18:00.521Z,98215.50
2022-08-05T11:20:47.530Z,98201.47
2022-08-05T11:24:04.678Z,98208.38
2022-08-05T11:26:35.618Z,98206.31
2022-08-05T11:29:12.856Z,98208.22
2022-08-05T11:31:58.579Z,98210.97
2022-08-05T11:34:39.241Z,98204.50
2022-08-05T11:38:29.050Z,98198.22
2022-08-05T11:40:00.367Z,98205.19
2022-08-05T11:42:37.621Z,98199.56
2022-08-05T11:45:06.141Z,98197.28
2022-08-05T11:47:54.862Z,98197.94
2022-08-05T11:50:22.363Z,98202.13
2022-08-05T11:52:52.086Z,98201.66
2022-08-05T11:55:21.256Z,98192.56
2022-08-05T11:58:10.795Z,98187.66
2022-08-05T12:00:38.527Z,98190.56
2022-08-05T12:03:29.030Z,98184.72
2022-08-05T12:06:05.770Z,98191.72
2022-08-05T12:08:33.670Z,98188.22
2022-08-05T12:11:06.241Z,98182.38
2022-08-05T12:13:48.745Z,98178.88
2022-08-05T12:16:19.373Z,98176.94
2022-08-05T12:18:52.787Z,98177.38
2022-08-05T12:21:22.047Z,98185.59
2022-08-05T12:24:04.620Z,98192.16
2022-08-05T12:26:34.024Z,98179.94
2022-08-05T12:29:01.528Z,98176.28
2022-08-05T12:31:47.736Z,98176.69
2022-08-05T12:34:21.447Z,98170.09
2022-08-05T12:36:52.400Z,98177.84
2022-08-05T12:39:19.248Z,98175.03
2022-08-05T12:41:46.070Z,98168.28
2022-08-05T12:44:32.667Z,98153.47
2022-08-05T12:47:02.227Z,98156.59
2022-08-05T12:50:04.197Z,98164.19
2022-08-05T12:52:38.177Z,98156.97
2022-08-05T12:55:26.667Z,98153.50
2022-08-05T12:58:50.806Z,98157.22
2022-08-05T13:02:01.960Z,98150.59
2022-08-05T13:03:35.100Z,98156.16
2022-08-05T13:06:10.520Z,98152.06
2022-08-05T13:08:38.783Z,98157.97
2022-08-05T13:11:07.930Z,98144.38
2022-08-05T13:14:05.601Z,98149.53
2022-08-05T13:16:28.059Z,98160.25
2022-08-05T13:18:58.413Z,98149.31
2022-08-05T13:21:28.411Z,98153.88
2022-08-05T13:24:05.279Z,98147.50
2022-08-05T13:26:32.004Z,98147.44
2022-08-05T13:28:59.022Z,98149.94
2022-08-05T13:31:33.992Z,98141.91
2022-08-05T13:34:20.955Z,98138.22
2022-08-05T13:36:50.259Z,98135.72
2022-08-05T13:40:13.569Z,98136.97
2022-08-05T13:42:03.720Z,98134.53
2022-08-05T13:44:30.351Z,98136.00
2022-08-05T13:47:04.608Z,98131.66
2022-08-05T13:49:35.309Z,98126.50
2022-08-05T13:52:13.045Z,98124.41
2022-08-05T13:54:40.354Z,98123.56
2022-08-05T13:57:08.381Z,98120.44
2022-08-05T13:59:37.716Z,98124.97
2022-08-05T14:02:26.504Z,98131.56
2022-08-05T14:05:12.022Z,98127.09
2022-08-05T14:08:00.938Z,98115.53
2022-08-05T14:10:31.287Z,98118.72
2022-08-05T14:12:58.917Z,98116.34
2022-08-05T14:16:05.783Z,98113.66
2022-08-05T14:18:18.584Z,98106.03
2022-08-05T14:20:55.141Z,98101.94
2022-08-05T14:23:25.403Z,98098.25
2022-08-05T14:25:57.981Z,98106.09
2022-08-05T14:28:26.861Z,98082.97
2022-08-05T14:30:54.767Z,98092.47
2022-08-05T14:33:22.727Z,98104.84
2022-08-05T14:35:51.749Z,98085.88
2022-08-05T14:38:27.701Z,98085.88
2022-08-05T14:41:01.183Z,98079.53
2022-08-05T14:44:01.594Z,98078.88
2022-08-05T14:46:14.482Z,98079.88
2022-08-05T14:48:41.508Z,98075.16
2022-08-05T14:51:09.387Z,98077.25
2022-08-05T14:53:44.517Z,98070.41
2022-08-05T14:56:12.068Z,98067.97
2022-08-05T14:58:47.618Z,98069.00
2022-08-05T15:01:24.347Z,98073.72
2022-08-05T15:04:11.556Z,98074.38
2022-08-05T15:06:38.885Z,98072.69
2022-08-05T15:09:07.575Z,98074.97
2022-08-05T15:11:53.105Z,98074.75
2022-08-05T15:14:35.680Z,98064.41
2022-08-05T15:17:09.805Z,98066.91
2022-08-05T15:19:56.091Z,98061.13
2022-08-05T15:22:26.935Z,98066.06
2022-08-05T15:24:55.038Z,98066.06
2022-08-05T15:27:21.660Z,98064.22
2022-08-05T15:29:52.404Z,98061.13
2022-08-05T15:32:21.212Z,98058.47
2022-08-05T15:34:54.163Z,98058.69
2022-08-05T15:38:09.287Z,98057.03
2022-08-05T15:41:00.728Z,98055.16
2022-08-05T15:43:01.597Z,98054.13
2022-08-05T15:45:38.314Z,98056.81
2022-08-05T15:48:05.762Z,98056.59
2022-08-05T15:50:33.671Z,98051.03
2022-08-05T15:53:04.145Z,98057.84
2022-08-05T15:56:02.909Z,98050.81
2022-08-05T15:58:19.195Z,98061.97
2022-08-05T16:00:50.650Z,98058.25
2022-08-05T16:03:30.286Z,98052.09
2022-08-05T16:05:59.491Z,98049.81
2022-08-05T16:08:30.464Z,98050.63
2022-08-05T16:10:57.778Z,98058.03
2022-08-05T16:13:34.259Z,98054.56
2022-08-05T16:16:03.619Z,98055.19
2022-08-05T16:18:32.769Z,98052.69
2022-08-05T16:21:04.275Z,98058.41
2022-08-05T16:23:53.278Z,98060.13
2022-08-05T16:26:18.271Z,98058.66
2022-08-05T16:28:44.968Z,98055.97
2022-08-05T16:31:11.615Z,98053.94
2022-08-05T16:33:41.566Z,98052.50
2022-08-05T16:36:09.119Z,98063.19
2022-08-05T16:38:35.796Z,98057.66
2022-08-05T16:41:02.615Z,98054.56
2022-08-05T16:43:49.261Z,98058.25
2022-08-05T16:46:24.341Z,98057.44
2022-08-05T16:48:51.931Z,98052.91
2022-08-05T16:51:19.484Z,98052.09
2022-08-05T16:54:05.179Z,98049.78
2022-08-05T16:56:35.022Z,98050.00
2022-08-05T16:59:08.018Z,98043.63
2022-08-05T17:01:52.910Z,98048.38
2022-08-05T17:04:22.085Z,98049.34
2022-08-05T17:06:53.301Z,98046.66
2022-08-05T17:09:20.541Z,98046.06
2022-08-05T17:11:48.779Z,98050.34
2022-08-05T17:14:34.387Z,98050.09
2022-08-05T17:17:04.950Z,98047.47
2022-08-05T17:19:31.642Z,98049.66
2022-08-05T17:21:58.595Z,98048.34
2022-08-05T17:24:36.513Z,98041.44
2022-08-05T17:27:07.309Z,98039.53
2022-08-05T17:29:40.895Z,98044.34
2022-08-05T17:32:16.815Z,98042.22
2022-08-05T17:34:44.898Z,98042.69
2022-08-05T17:37:39.716Z,98048.56
2022-08-05T17:40:02.097Z,98041.44
2022-08-05T17:42:32.272Z,98040.50
2022-08-05T17:45:17.903Z,98035.94
2022-08-05T17:47:52.891Z,98043.78
2022-08-05T17:50:27.652Z,98051.63
2022-08-05T17:52:56.095Z,98047.06
2022-08-05T17:55:27.271Z,98045.03
2022-08-05T17:58:02.143Z,98049.78
2022-08-05T18:00:29.453Z,98052.38
2022-08-05T18:02:56.542Z,98042.81
2022-08-05T18:05:23.799Z,98052.75
2022-08-05T18:07:54.757Z,98044.84
2022-08-05T18:10:23.702Z,98054.09
2022-08-05T18:12:50.347Z,98048.59
2022-08-05T18:15:17.491Z,98049.97
2022-08-05T18:17:58.993Z,98055.13
2022-08-05T18:20:29.401Z,98060.25
2022-08-05T18:23:00.649Z,98057.88
2022-08-05T18:25:36.907Z,98068.03
2022-08-05T18:28:06.633Z,98068.56
2022-08-05T18:30:34.473Z,98069.47
2022-08-05T18:33:01.708Z,98069.69
2022-08-05T18:36:01.270Z,98087.41
2022-08-05T18:38:19.393Z,98079.50
2022-08-05T18:41:53.561Z,98071.56
2022-08-05T18:43:42.841Z,98069.59
2022-08-05T18:46:14.959Z,98068.25
2022-08-05T18:48:42.144Z,98073.28
2022-08-05T18:52:02.828Z,98079.75
2022-08-05T18:54:15.365Z,98079.38
2022-08-05T18:56:51.244Z,98077.25
2022-08-05T18:59:44.255Z,98085.56
2022-08-05T19:02:26.859Z,98094.53
2022-08-05T19:05:02.613Z,98087.75
2022-08-05T19:07:45.277Z,98101.25
2022-08-05T19:10:13.141Z,98098.41
2022-08-05T19:12:40.491Z,98100.25
2022-08-05T19:15:25.134Z,98099.41
2022-08-05T19:18:09.400Z,98105.03
2022-08-05T19:20:37.106Z,98099.56
2022-08-05T19:23:08.615Z,98107.88
2022-08-05T19:26:01.796Z,98106.03
2022-08-05T19:28:29.463Z,98112.47
2022-08-05T19:30:56.080Z,98107.00
2022-08-05T19:33:36.044Z,98110.31
2022-08-05T19:36:07.059Z,98111.78
2022-08-05T19:38:37.311Z,98116.44
2022-08-05T19:41:06.670Z,98119.56
2022-08-05T19:44:05.888Z,98114.03
2022-08-05T19:46:29.698Z,98112.06
2022-08-05T19:49:01.207Z,98113.03
2022-08-05T19:52:05.760Z,98106.91
2022-08-05T19:54:28.409Z,98111.03
2022-08-05T19:56:58.971Z,98114.84
2022-08-05T20:00:00.823Z,98115.31
2022-08-05T20:02:14.384Z,98117.25
2022-08-05T20:04:43.176Z,98117.91
2022-08-05T20:07:13.300Z,98108.59
2022-08-05T20:09:55.062Z,98115.91
2022-08-05T20:12:24.558Z,98118.19
2022-08-05T20:14:52.931Z,98120.81
2022-08-05T20:17:23.574Z,98119.38
2022-08-05T20:19:51.111Z,98121.00
2022-08-05T20:22:25.035Z,98118.13
2022-08-05T20:24:57.358Z,98114.06
2022-08-05T20:27:27.406Z,98117.00
2022-08-05T20:30:10.281Z,98109.69
2022-08-05T20:32:37.294Z,98105.13
2022-08-05T20:35:11.935Z,98114.97
2022-08-05T20:38:06.307Z,98114.56
2022-08-05T20:40:25.357Z,98109.75
2022-08-05T20:42:53.700Z,98117.31
2022-08-05T20:45:56.514Z,98110.97
2022-08-05T20:48:16.190Z,98117.72
2022-08-05T20:50:45.449Z,98126.91
2022-08-05T20:53:16.102Z,98123.59
2022-08-05T20:56:08.244Z,98120.88
2022-08-05T20:58:36.151Z,98114.50
2022-08-05T21:01:04.382Z,98128.34
2022-08-05T21:03:34.679Z,98131.28
2022-08-05T21:06:02.028Z,98126.88
2022-08-05T21:08:42.285Z,98128.69
2022-08-05T21:11:12.568Z,98133.44
2022-08-05T21:13:55.729Z,98134.56
2022-08-05T21:16:29.152Z,98136.84
2022-08-05T21:19:00.086Z,98149.22
2022-08-05T21:21:44.047Z,98149.25
2022-08-05T21:24:15.907Z,98153.19
2022-08-05T21:26:47.226Z,98149.84
2022-08-05T21:29:20.399Z,98154.31
2022-08-05T21:31:52.725Z,98147.13
2022-08-05T21:34:20.467Z,98139.03
2022-08-05T21:36:49.208Z,98143.09
2022-08-05T21:39:16.990Z,98137.81
2022-08-05T21:41:53.128Z,98132.13
2022-08-05T21:44:28.535Z,98135.75
2022-08-05T21:46:57.945Z,98135.50
2022-08-05T21:49:59.476Z,98140.47
2022-08-05T21:52:28.005Z,98135.94
2022-08-05T21:54:56.400Z,98130.25
2022-08-05T21:57:32.023Z,98141.06
2022-08-05T22:00:11.149Z,98134.53
2022-08-05T22:02:38.878Z,98132.34
2022-08-05T22:05:06.111Z,98136.34
2022-08-05T22:07:54.244Z,98134.94
2022-08-05T22:10:26.680Z,98135.53
2022-08-05T22:12:54.684Z,98134.00
2022-08-05T22:16:01.814Z,98138.34
2022-08-05T22:18:11.251Z,98141.66
2022-08-05T22:20:39.090Z,98143.63
2022-08-05T22:24:03.117Z,98136.81
2022-08-05T22:26:30.932Z,98145.28
2022-08-05T22:28:57.583Z,98148.22
2022-08-05T22:31:30.265Z,98151.13
2022-08-05T22:34:01.525Z,98145.56
2022-08-05T22:36:29.202Z,98149.84
2022-08-05T22:38:56.247Z,98159.88
2022-08-05T22:42:04.371Z,98162.09
2022-08-05T22:44:11.827Z,98171.94
2022-08-05T22:46:40.654Z,98162.38
2022-08-05T22:49:23.058Z,98159.72
2022-08-05T22:52:05.483Z,98164.41
2022-08-05T22:54:35.446Z,98168.56
2022-08-05T22:57:02.868Z,98161.34
2022-08-05T22:59:46.265Z,98154.41
2022-08-05T23:02:29.807Z,98162.72
2022-08-05T23:05:01.514Z,98158.53
2022-08-05T23:07:29.248Z,98155.16
2022-08-05T23:10:01.633Z,98151.97
2022-08-05T23:12:32.687Z,98152.91
2022-08-05T23:15:03.530Z,98155.56
2022-08-05T23:17:34.722Z,98151.38
2022-08-05T23:20:10.466Z,98164.53
2022-08-05T23:22:44.077Z,98154.81
2022-08-05T23:25:17.447Z,98162.88
2022-08-05T23:28:01.711Z,98153.25
2022-08-05T23:30:29.086Z,98150.22
2022-08-05T23:32:57.909Z,98155.88
2022-08-05T23:35:28.639Z,98153.78
2022-08-05T23:38:01.229Z,98154.88
2022-08-05T23:40:28.009Z,98160.66
2022-08-05T23:42:54.656Z,98151.94
2022-08-05T23:45:23.654Z,98152.03
2022-08-05T23:47:53.638Z,98151.00
2022-08-05T23:50:26.150Z,98151.00
2022-08-05T23:52:55.359Z,98150.97
2022-08-05T23:55:22.522Z,98153.47
2022-08-05T23:57:57.498Z,98154.34
